Time;durP1;ratioP1;P1;durP2;ratioP2;P2;SDS_P1;SDS_P2;PMS_P1;PMS_P2;Temp;Humidity;BMP_temperature;BMP_pressure;BME280_temperature;BME280_humidity;BME280_pressure;Samples;Min_cycle;Max_cycle;Signal;HPM_P1;HPM_P2
2021/06/22 00:01:29;;;;;;;7.00;2.75;;;23.70;79.50;;;;;;6171865;23;20025;-94
2021/06/22 00:04:28;;;;;;;9.63;3.45;;;23.50;79.80;;;;;;6176220;23;20009;-94
2021/06/22 00:07:14;;;;;;;8.48;3.42;;;23.50;79.60;;;;;;6173452;23;20006;-94
2021/06/22 00:10:02;;;;;;;9.13;3.45;;;23.50;79.70;;;;;;6148511;23;20041;-95
2021/06/22 00:13:01;;;;;;;10.68;3.50;;;23.40;80.10;;;;;;6170231;23;20010;-95
2021/06/22 00:18:21;;;;;;;9.27;3.30;;;23.20;79.80;;;;;;6173592;23;20005;-95
2021/06/22 00:21:08;;;;;;;;;;;;;;;;;;;;;
2021/06/22 00:24:05;;;;;;;7.97;3.38;;;23.10;80.50;;;;;;6172457;23;20002;-94
2021/06/22 00:26:44;;;;;;;4.53;2.95;;;23.10;80.40;;;;;;6169597;23;20009;-95
2021/06/22 00:29:22;;;;;;;6.43;3.28;;;23.00;80.50;;;;;;6169788;23;20055;-94
2021/06/22 00:31:56;;;;;;;8.40;2.78;;;23.00;80.80;;;;;;6168136;23;20051;-95
2021/06/22 00:34:32;;;;;;;8.13;3.05;;;22.90;80.50;;;;;;6168348;23;20002;-94
2021/06/22 00:37:50;;;;;;;6.80;3.53;;;22.90;80.50;;;;;;6170380;23;20013;-94
2021/06/22 00:40:32;;;;;;;5.40;2.72;;;22.90;81.20;;;;;;6171051;23;20373;-94
2021/06/22 00:43:01;;;;;;;11.57;3.75;;;22.80;79.80;;;;;;6172691;23;19997;-94
2021/06/22 00:45:44;;;;;;;;;;;;;;;;;;;;;
2021/06/22 00:48:14;;;;;;;9.07;3.35;;;22.90;79.70;;;;;;6172757;23;20325;-94
2021/06/22 00:50:48;;;;;;;4.95;2.92;;;22.90;79.30;;;;;;6173012;23;20333;-95
2021/06/22 00:54:02;;;;;;;;;;;;;;;;;;;;;
2021/06/22 00:56:41;;;;;;;6.07;3.20;;;22.90;78.80;;;;;;6169696;23;19997;-95
2021/06/22 00:59:12;;;;;;;6.18;2.95;;;22.90;79.10;;;;;;6168332;23;20007;-94
2021/06/22 01:05:13;;;;;;;4.82;3.03;;;23.00;78.80;;;;;;6183503;23;20065;-95
2021/06/22 01:07:44;;;;;;;10.63;3.35;;;23.00;78.40;;;;;;6165804;23;20031;-95
2021/06/22 01:10:43;;;;;;;10.75;3.88;;;23.00;78.30;;;;;;6167192;23;20009;-95
2021/06/22 01:13:12;;;;;;;8.95;3.63;;;23.00;78.20;;;;;;6164599;23;20006;-95
2021/06/22 01:15:45;;;;;;;11.80;3.15;;;23.00;78.50;;;;;;6168856;23;20005;-94
2021/06/22 01:18:18;;;;;;;5.88;3.35;;;23.00;78.40;;;;;;6166368;23;20310;-94
2021/06/22 01:20:52;;;;;;;4.57;3.63;;;22.90;78.40;;;;;;6133907;23;20088;-94
2021/06/22 01:23:20;;;;;;;4.03;2.90;;;22.90;78.50;;;;;;6112089;23;20002;-94
2021/06/22 01:26:02;;;;;;;5.70;3.15;;;22.80;78.70;;;;;;6112839;23;20002;-95
2021/06/22 01:28:38;;;;;;;7.68;3.10;;;22.80;79.10;;;;;;6113719;23;20006;-94
2021/06/22 01:31:24;;;;;;;13.13;3.47;;;22.70;79.10;;;;;;6114903;23;20018;-94
2021/06/22 01:34:00;;;;;;;8.68;3.05;;;22.70;79.40;;;;;;6110475;23;20006;-95
2021/06/22 01:36:29;;;;;;;6.07;2.88;;;22.80;79.50;;;;;;6111976;23;20014;-95
2021/06/22 01:38:57;;;;;;;7.40;2.85;;;22.80;79.60;;;;;;6111143;23;20002;-95
2021/06/22 01:41:26;;;;;;;6.05;2.80;;;22.90;79.50;;;;;;6110362;23;20025;-95
2021/06/22 01:44:12;;;;;;;5.80;2.45;;;23.00;79.10;;;;;;6110179;23;20013;-94
2021/06/22 01:46:48;;;;;;;5.32;2.55;;;23.10;78.70;;;;;;6165842;23;20005;-95
2021/06/22 01:49:25;;;;;;;5.50;2.60;;;23.20;78.40;;;;;;6167436;23;20006;-94
2021/06/22 01:51:55;;;;;;;5.13;2.65;;;23.20;77.90;;;;;;6163536;23;20018;-95
2021/06/22 01:57:48;;;;;;;7.72;2.70;;;23.30;77.10;;;;;;6166258;23;20012;-95
2021/06/22 02:00:17;;;;;;;2.97;2.50;;;23.30;76.80;;;;;;6139876;23;20009;-95
2021/06/22 02:02:48;;;;;;;5.32;2.97;;;23.40;76.50;;;;;;6137975;23;20432;-94
2021/06/22 02:05:22;;;;;;;5.95;2.50;;;23.40;76.50;;;;;;6139654;23;20001;-94
2021/06/22 02:08:00;;;;;;;5.13;2.50;;;23.50;76.20;;;;;;6136962;23;20017;-93
2021/06/22 02:10:29;;;;;;;2.95;2.60;;;23.50;76.30;;;;;;6142275;23;20012;-95
2021/06/22 02:12:58;;;;;;;4.53;2.55;;;23.50;75.60;;;;;;6141044;23;20108;-95
2021/06/22 02:15:24;;;;;;;4.20;2.30;;;23.50;75.50;;;;;;6138183;23;20029;-94
2021/06/22 02:20:40;;;;;;;5.93;1.90;;;23.50;75.40;;;;;;6195246;22;20028;-94
2021/06/22 02:23:12;;;;;;;5.60;2.83;;;23.50;75.30;;;;;;6168355;22;20013;-94
2021/06/22 02:26:03;;;;;;;3.00;2.40;;;23.50;74.80;;;;;;6167143;23;20006;-94
2021/06/22 02:28:50;;;;;;;5.35;2.40;;;23.60;74.30;;;;;;6170004;23;20005;-95
2021/06/22 02:31:21;;;;;;;3.47;2.42;;;23.60;74.40;;;;;;6168083;22;20001;-94
2021/06/22 02:33:59;;;;;;;4.55;2.70;;;23.60;74.00;;;;;;6165565;23;20009;-95
2021/06/22 02:36:29;;;;;;;5.35;2.60;;;23.70;73.90;;;;;;6190267;23;20028;-95
2021/06/22 02:39:01;;;;;;;5.03;2.78;;;23.70;73.60;;;;;;6198304;23;20022;-94
2021/06/22 02:41:39;;;;;;;5.65;2.58;;;23.80;73.30;;;;;;6200950;22;20419;-95
2021/06/22 02:44:20;;;;;;;3.47;2.42;;;23.80;72.70;;;;;;6205301;22;20000;-95
2021/06/22 02:47:05;;;;;;;3.22;2.28;;;23.80;72.60;;;;;;6199821;22;20000;-94
2021/06/22 02:49:36;;;;;;;5.28;3.00;;;23.80;72.60;;;;;;6202127;22;20030;-95
2021/06/22 02:52:10;;;;;;;5.10;2.30;;;23.80;72.30;;;;;;6198063;23;20016;-94
2021/06/22 02:54:42;;;;;;;4.70;2.80;;;23.80;72.60;;;;;;6201321;23;20001;-94
2021/06/22 02:57:24;;;;;;;;;;;;;;;;;;;;;
2021/06/22 03:00:00;;;;;;;;;;;;;;;;;;;;;
2021/06/22 03:02:38;;;;;;;5.03;2.70;;;23.80;72.50;;;;;;6225926;23;20040;-95
2021/06/22 03:05:10;;;;;;;4.43;2.25;;;23.80;72.60;;;;;;6202488;22;20001;-93
2021/06/22 03:07:42;;;;;;;3.50;2.67;;;23.90;72.50;;;;;;6202275;23;20080;-94
2021/06/22 03:10:15;;;;;;;3.53;2.33;;;23.90;72.50;;;;;;6200649;23;20003;-94
2021/06/22 03:12:41;;;;;;;5.10;2.10;;;23.90;72.30;;;;;;6200540;22;20092;-94
2021/06/22 03:15:09;;;;;;;4.75;2.58;;;24.00;72.30;;;;;;6197403;23;20016;-94
2021/06/22 03:17:40;;;;;;;3.15;1.98;;;24.10;72.30;;;;;;6196468;23;20025;-95
2021/06/22 03:20:18;;;;;;;3.03;2.17;;;24.10;72.20;;;;;;6218067;22;20017;-94
2021/06/22 03:22:59;;;;;;;2.55;2.10;;;24.10;72.00;;;;;;6227048;22;20066;-94
2021/06/22 03:25:30;;;;;;;3.42;2.20;;;24.20;71.90;;;;;;6225214;22;20005;-95
2021/06/22 03:27:56;;;;;;;3.17;1.95;;;24.20;71.70;;;;;;6222364;22;20016;-94
2021/06/22 03:30:25;;;;;;;4.93;2.05;;;24.30;71.60;;;;;;6221772;22;20084;-94
2021/06/22 03:32:53;;;;;;;6.15;2.33;;;24.30;71.50;;;;;;6221174;22;20005;-94
2021/06/22 03:35:22;;;;;;;5.53;2.97;;;24.30;71.20;;;;;;6223060;22;20277;-95
2021/06/22 03:38:17;;;;;;;3.17;2.10;;;24.40;71.10;;;;;;6222177;23;20032;-95
2021/06/22 03:40:46;;;;;;;7.13;2.22;;;24.50;70.30;;;;;;6222840;22;20332;-95
2021/06/22 03:43:17;;;;;;;7.15;2.47;;;24.40;70.60;;;;;;6223443;22;20000;-94
2021/06/22 03:45:53;;;;;;;4.45;2.20;;;24.50;70.50;;;;;;6224476;22;20000;-95
2021/06/22 03:48:29;;;;;;;4.03;2.30;;;24.40;70.00;;;;;;6219905;22;20039;-95
2021/06/22 03:51:03;;;;;;;8.45;2.40;;;24.40;70.10;;;;;;6222619;23;20020;-94
2021/06/22 03:53:37;;;;;;;5.38;2.15;;;24.50;69.90;;;;;;6229514;22;20008;-94
2021/06/22 03:56:20;;;;;;;4.20;2.40;;;24.50;69.90;;;;;;6226580;22;19997;-95
2021/06/22 03:59:02;;;;;;;6.20;3.00;;;24.50;70.00;;;;;;6221474;22;20015;-95
2021/06/22 04:01:31;;;;;;;3.72;2.20;;;24.60;70.00;;;;;;6222997;22;20012;-94
2021/06/22 04:07:29;;;;;;;3.33;2.53;;;24.70;69.30;;;;;;6223354;23;20012;-95
2021/06/22 04:10:05;;;;;;;3.97;2.70;;;24.80;69.20;;;;;;6225863;23;20048;-94
2021/06/22 04:12:37;;;;;;;2.58;2.33;;;24.90;69.10;;;;;;6222357;22;20008;-95
2021/06/22 04:15:06;;;;;;;4.35;2.42;;;24.90;69.00;;;;;;6223729;23;20012;-95
2021/06/22 04:17:48;;;;;;;6.05;2.80;;;25.00;68.60;;;;;;6223202;22;20005;-95
2021/06/22 04:20:35;;;;;;;3.25;2.63;;;25.10;68.10;;;;;;6220094;23;20039;-94
2021/06/22 04:26:15;;;;;;;10.27;3.20;;;25.30;67.40;;;;;;6257011;23;20343;-94
2021/06/22 04:28:44;;;;;;;5.18;2.70;;;25.20;67.00;;;;;;6255403;23;20008;-95
2021/06/22 04:31:32;;;;;;;3.97;2.40;;;25.10;66.90;;;;;;6236554;23;20020;-94
2021/06/22 04:34:24;;;;;;;5.80;2.47;;;25.00;67.00;;;;;;6225941;23;20005;-94
2021/06/22 04:36:55;;;;;;;3.85;2.60;;;25.00;67.20;;;;;;6223029;22;20033;-95
2021/06/22 04:39:39;;;;;;;6.15;2.70;;;25.00;67.40;;;;;;6223943;22;19997;-95
2021/06/22 04:42:08;;;;;;;6.40;2.88;;;25.10;67.30;;;;;;6224696;22;20125;-95
2021/06/22 04:44:56;;;;;;;;;;;;;;;;;;;;;
2021/06/22 04:47:53;;;;;;;9.10;3.03;;;25.20;67.00;;;;;;6224563;23;20020;-95
2021/06/22 04:53:37;;;;;;;6.90;2.83;;;25.20;66.80;;;;;;6223237;23;20005;-95
2021/06/22 04:56:13;;;;;;;4.97;2.58;;;25.20;66.50;;;;;;6223318;22;20000;-95
2021/06/22 05:12:39;;;;;;;4.88;2.63;;;25.30;63.70;;;;;;6248307;22;20023;-95
2021/06/22 05:19:08;;;;;;;;;;;;;;;;;;;;;
2021/06/22 05:32:02;;;;;;;7.65;3.10;;;26.30;63.80;;;;;;6078831;23;20066;-95
2021/06/22 05:38:38;;;;;;;7.40;2.67;;;26.80;62.00;;;;;;6076857;23;20057;-95
2021/06/22 05:42:03;;;;;;;5.75;2.60;;;27.00;61.40;;;;;;6167978;22;20033;-94
2021/06/22 05:44:47;;;;;;;;;;;;;;;;;;;;;
2021/06/22 05:47:45;;;;;;;5.03;2.97;;;27.30;60.70;;;;;;6225422;23;20075;-94
2021/06/22 05:50:21;;;;;;;9.20;3.58;;;27.40;60.60;;;;;;6228017;22;20483;-95
2021/06/22 05:52:57;;;;;;;7.35;3.20;;;27.50;60.60;;;;;;6224243;22;20012;-95
2021/06/22 05:56:03;;;;;;;7.03;2.92;;;27.50;60.30;;;;;;6227674;22;20020;-94
2021/06/22 06:01:39;;;;;;;5.80;2.85;;;27.60;60.00;;;;;;6236011;22;20009;-94
2021/06/22 06:04:36;;;;;;;6.50;2.50;;;27.60;59.60;;;;;;6226671;22;20039;-95
2021/06/22 06:07:47;;;;;;;;;;;;;;;;;;;;;
2021/06/22 06:10:24;;;;;;;;;;;;;;;;;;;;;
2021/06/22 06:19:50;;;;;;;;;;;;;;;;;;;;;
2021/06/22 06:22:48;;;;;;;;;;;;;;;;;;;;;
2021/06/22 06:26:00;;;;;;;11.27;3.90;;;27.90;58.60;;;;;;6224129;23;20001;-95
2021/06/22 06:28:32;;;;;;;7.03;3.22;;;28.00;58.60;;;;;;6105096;23;20010;-94
2021/06/22 06:31:32;;;;;;;;;;;;;;;;;;;;;
2021/06/22 06:34:03;;;;;;;13.68;3.35;;;28.00;59.10;;;;;;6127378;23;20033;-94
2021/06/22 06:36:38;;;;;;;17.60;4.43;;;28.00;59.00;;;;;;6179434;23;20009;-94
2021/06/22 06:42:09;;;;;;;14.43;3.83;;;28.20;58.40;;;;;;6200786;23;20440;-93
2021/06/22 06:44:45;;;;;;;10.83;3.37;;;28.30;58.10;;;;;;6196532;22;19998;-94
2021/06/22 06:47:14;;;;;;;11.00;3.35;;;28.30;58.00;;;;;;6192674;22;20009;-94
2021/06/22 06:49:45;;;;;;;14.50;4.18;;;28.40;57.70;;;;;;6194120;22;20008;-93
2021/06/22 06:52:25;;;;;;;11.95;4.18;;;28.40;57.40;;;;;;6196008;22;20059;-94
2021/06/22 06:55:40;;;;;;;10.13;3.35;;;28.40;57.20;;;;;;6196994;22;20005;-94
2021/06/22 06:58:24;;;;;;;10.07;3.53;;;28.50;56.80;;;;;;6189019;22;20001;-93
2021/06/22 07:01:15;;;;;;;;;;;;;;;;;;;;;
2021/06/22 07:04:01;;;;;;;;;;;;;;;;;;;;;
2021/06/22 07:06:41;;;;;;;16.75;3.75;;;28.60;56.40;;;;;;6193168;23;20035;-93
2021/06/22 07:09:44;;;;;;;15.05;3.70;;;28.60;56.50;;;;;;6315106;22;20058;-94
2021/06/22 07:23:14;;;;;;;12.15;3.17;;;28.90;54.80;;;;;;6142464;23;20036;-95
2021/06/22 07:25:43;;;;;;;31.50;4.65;;;28.90;55.00;;;;;;6153656;23;20010;-95
2021/06/22 07:32:22;;;;;;;11.48;4.00;;;29.00;54.70;;;;;;6325157;22;20068;-95
2021/06/22 07:35:36;;;;;;;18.85;4.05;;;29.00;54.90;;;;;;6224644;23;20051;-94
2021/06/22 07:42:20;;;;;;;13.55;3.65;;;29.10;54.20;;;;;;6136448;23;20044;-95
2021/06/22 07:44:53;;;;;;;15.27;4.13;;;29.10;54.40;;;;;;6132801;22;20024;-94
2021/06/22 07:47:25;;;;;;;16.77;4.80;;;29.10;54.90;;;;;;6137252;23;20013;-94
2021/06/22 07:50:22;;;;;;;24.17;5.32;;;29.10;54.50;;;;;;6140993;22;20010;-95
2021/06/22 07:52:53;;;;;;;21.65;5.07;;;29.10;53.60;;;;;;6106303;23;20037;-93
2021/06/22 07:55:46;;;;;;;19.40;4.40;;;29.00;54.00;;;;;;6135611;22;20002;-93
2021/06/22 08:22:23;;;;;;;;;;;;;;;;;;;;;
2021/06/22 08:25:17;;;;;;;14.88;4.30;;;29.30;54.60;;;;;;6190486;22;20127;-93
2021/06/22 08:28:25;;;;;;;16.80;5.22;;;29.30;54.60;;;;;;6190469;22;20013;-95
2021/06/22 08:44:27;;;;;;;17.20;5.30;;;29.60;54.80;;;;;;6097329;23;20062;-94
2021/06/22 08:47:02;;;;;;;21.40;5.15;;;29.60;54.80;;;;;;6201975;23;20035;-94
2021/06/22 08:52:23;;;;;;;13.13;3.22;;;29.70;55.20;;;;;;6178758;22;20039;-92
2021/06/22 08:54:52;;;;;;;18.23;5.32;;;29.80;55.40;;;;;;6171654;22;20013;-92
2021/06/22 08:57:22;;;;;;;19.88;5.80;;;29.80;55.10;;;;;;6168880;22;19997;-92
2021/06/22 08:59:59;;;;;;;19.20;5.32;;;29.90;54.70;;;;;;6176303;22;20061;-94
2021/06/22 09:06:13;;;;;;;;;;;;;;;;;;;;;
2021/06/22 09:09:27;;;;;;;18.27;4.95;;;29.80;54.60;;;;;;6201878;23;20001;-94
2021/06/22 09:12:25;;;;;;;18.05;4.45;;;29.90;55.00;;;;;;6201079;23;20021;-94
2021/06/22 09:15:32;;;;;;;;;;;;;;;;;;;;;
2021/06/22 09:29:16;;;;;;;14.63;4.30;;;30.30;53.80;;;;;;6202082;23;20007;-95
2021/06/22 09:44:54;;;;;;;21.40;5.85;;;30.20;53.70;;;;;;6198198;23;20028;-96
2021/06/22 09:51:40;;;;;;;27.55;6.65;;;30.20;53.80;;;;;;6197487;23;20024;-96
2021/06/22 09:54:14;;;;;;;23.08;5.03;;;30.20;53.40;;;;;;6172009;23;20092;-96
2021/06/22 10:00:35;;;;;;;21.63;5.38;;;30.10;53.80;;;;;;6203043;23;20038;-95
2021/06/22 10:10:49;;;;;;;19.40;4.57;;;30.30;53.60;;;;;;6083274;23;20043;-95
2021/06/22 10:25:29;;;;;;;;;;;;;;;;;;;;;
2021/06/22 10:28:39;;;;;;;26.02;6.68;;;30.60;53.40;;;;;;5946655;24;20012;-95
2021/06/22 10:31:30;;;;;;;16.95;4.88;;;30.60;52.90;;;;;;6046978;23;20019;-95
2021/06/22 10:41:33;;;;;;;17.17;5.15;;;30.70;52.70;;;;;;6162582;23;20006;-95
2021/06/22 11:25:18;;;;;;;19.17;6.70;;;31.40;51.10;;;;;;5959726;24;20020;-95
2021/06/22 11:34:59;;;;;;;15.07;5.35;;;31.40;50.80;;;;;;6134816;23;20021;-94
2021/06/22 11:40:35;;;;;;;21.98;5.95;;;31.50;51.20;;;;;;6131870;23;20006;-95
2021/06/22 11:53:35;;;;;;;20.27;5.28;;;32.00;50.10;;;;;;6219475;22;20101;-96
2021/06/22 11:59:27;;;;;;;18.83;5.72;;;32.30;49.70;;;;;;6171168;23;19996;-94
2021/06/22 16:25:16;;;;;;;;;;;;;;;;;;;;;
2021/06/22 16:40:09;;;;;;;;;;;;;;;;;;;;;
2021/06/22 16:57:35;;;;;;;4.72;2.25;;;30.20;47.60;;;;;;6048162;23;20007;-95
2021/06/22 17:01:18;;;;;;;;;;;;;;;;;;;;;
2021/06/22 17:22:18;;;;;;;;;;;;;;;;;;;;;
2021/06/22 17:32:03;;;;;;;3.70;1.90;;;28.90;51.50;;;;;;5900262;24;20028;-94
2021/06/22 17:35:42;;;;;;;;;;;;;;;;;;;;;
2021/06/22 18:06:30;;;;;;;;;;;;;;;;;;;;;
2021/06/22 18:10:02;;;;;;;;;;;;;;;;;;;;;
2021/06/22 18:20:43;;;;;;;;;;;;;;;;;;;;;
2021/06/22 18:56:06;;;;;;;2.97;1.83;;;26.50;58.70;;;;;;6025299;23;20064;-94
2021/06/22 19:02:46;;;;;;;;;;;;;;;;;;;;;
2021/06/22 19:13:03;;;;;;;;;;;;;;;;;;;;;
2021/06/22 20:36:23;;;;;;;;;;;;;;;;;;;;;
2021/06/22 20:39:34;;;;;;;3.22;2.25;;;24.90;73.30;;;;;;5774284;24;20036;-94
2021/06/22 20:42:42;;;;;;;;;;;;;;;;;;;;;
2021/06/22 20:46:10;;;;;;;;;;;;;;;;;;;;;
2021/06/22 20:59:44;;;;;;;;;;;;;;;;;;;;;
2021/06/22 21:03:08;;;;;;;4.75;2.53;;;25.00;70.80;;;;;;5928122;24;20037;-95
2021/06/22 21:06:19;;;;;;;;;;;;;;;;;;;;;
2021/06/22 21:43:37;;;;;;;5.05;2.15;;;24.70;70.50;;;;;;5947433;24;20042;-93
2021/06/22 21:49:55;;;;;;;3.72;2.08;;;24.70;69.50;;;;;;5828880;24;20082;-93
2021/06/22 22:01:07;;;;;;;4.65;2.22;;;24.70;69.40;;;;;;5812191;24;20018;-94
2021/06/22 22:08:18;;;;;;;;;;;;;;;;;;;;;
2021/06/22 22:15:14;;;;;;;2.72;1.95;;;24.70;70.00;;;;;;5908909;24;20021;-93
2021/06/22 22:32:30;;;;;;;;;;;;;;;;;;;;;
2021/06/22 22:38:54;;;;;;;;;;;;;;;;;;;;;
2021/06/22 22:59:28;;;;;;;3.33;2.47;;;24.50;71.50;;;;;;5989374;23;20041;-94
2021/06/22 23:10:00;;;;;;;2.13;1.90;;;24.60;70.20;;;;;;5953304;23;20142;-94
2021/06/22 23:16:37;;;;;;;8.68;2.78;;;24.60;69.90;;;;;;5900298;24;20013;-94
2021/06/22 23:19:50;;;;;;;;;;;;;;;;;;;;;
2021/06/22 23:29:18;;;;;;;3.05;2.25;;;24.40;71.00;;;;;;5882215;24;20610;-94
2021/06/22 23:46:32;;;;;;;5.20;2.25;;;24.20;71.60;;;;;;6134282;23;20006;-94
2021/06/22 23:56:38;;;;;;;3.58;2.55;;;24.20;70.70;;;;;;6047232;23;20011;-95
